createdAt,value
2023-04-24T00:01:29.950Z,99307.38
2023-04-24T00:03:56.468Z,99306.19
2023-04-24T00:06:22.822Z,99294.78
2023-04-24T00:08:49.034Z,99310.72
2023-04-24T00:11:15.253Z,99295.81
2023-04-24T00:13:41.462Z,99290.94
2023-04-24T00:16:07.678Z,99285.44
2023-04-24T00:18:33.880Z,99275.53
2023-04-24T00:21:00.196Z,99256.50
2023-04-24T00:23:26.416Z,99266.72
2023-04-24T00:25:52.623Z,99266.00
2023-04-24T00:28:18.827Z,99267.34
2023-04-24T00:30:45.043Z,99282.16
2023-04-24T00:33:11.260Z,99268.13
2023-04-24T00:35:37.453Z,99276.50
2023-04-24T00:38:03.659Z,99257.38
2023-04-24T00:40:29.888Z,99233.53
2023-04-24T00:42:56.114Z,99220.47
2023-04-24T00:45:22.307Z,99196.91
2023-04-24T00:47:48.748Z,99194.81
2023-04-24T00:50:15.020Z,99180.69
2023-04-24T00:52:41.306Z,99172.22
2023-04-24T00:55:07.663Z,99149.25
2023-04-24T00:57:33.892Z,99161.38
2023-04-24T01:00:00.189Z,99131.44
2023-04-24T01:02:26.651Z,99139.66
2023-04-24T01:04:52.997Z,99152.75
2023-04-24T01:07:20.364Z,99163.25
2023-04-24T01:09:46.562Z,99180.44
2023-04-24T01:12:12.779Z,99184.38
2023-04-24T01:14:38.972Z,99182.00
2023-04-24T01:17:05.183Z,99170.38
2023-04-24T01:19:31.398Z,99173.56
2023-04-24T01:21:58.309Z,99182.97
2023-04-24T01:24:24.505Z,99181.13
2023-04-24T01:26:50.709Z,99164.28
2023-04-24T01:29:16.905Z,99160.88
2023-04-24T01:31:43.221Z,99174.25
2023-04-24T01:34:09.459Z,99186.34
2023-04-24T01:36:35.652Z,99215.97
2023-04-24T01:39:01.961Z,99215.38
2023-04-24T01:41:28.168Z,99198.84
2023-04-24T01:43:54.379Z,99203.69
2023-04-24T01:46:20.617Z,99202.16
2023-04-24T01:48:47.276Z,99202.41
2023-04-24T01:51:13.529Z,99225.69
2023-04-24T01:53:39.738Z,99225.78
2023-04-24T01:56:06.005Z,99218.94
2023-04-24T01:58:32.223Z,99232.38
2023-04-24T02:00:58.447Z,99250.38
2023-04-24T02:03:24.868Z,99303.16
2023-04-24T02:05:51.199Z,99402.59
2023-04-24T02:08:17.423Z,99429.69
2023-04-24T02:10:43.622Z,99363.78
2023-04-24T02:13:09.824Z,99402.72
2023-04-24T02:15:36.033Z,99383.25
2023-04-24T02:18:02.368Z,99355.25
2023-04-24T02:20:28.590Z,99343.16
2023-04-24T02:22:54.793Z,99341.28
2023-04-24T02:25:21.001Z,99375.84
2023-04-24T02:27:47.207Z,99387.69
2023-04-24T02:30:13.535Z,99390.03
2023-04-24T02:32:39.745Z,99391.34
2023-04-24T02:35:06.202Z,99383.84
2023-04-24T02:37:32.429Z,99363.78
2023-04-24T02:39:58.647Z,99370.44
2023-04-24T02:42:24.852Z,99396.47
2023-04-24T02:44:51.067Z,99394.09
2023-04-24T02:47:17.264Z,99366.06
2023-04-24T02:49:43.694Z,99328.16
2023-04-24T02:52:10.173Z,99320.09
2023-04-24T02:54:36.400Z,99326.88
2023-04-24T02:57:02.627Z,99311.19
2023-04-24T02:59:28.850Z,99305.97
2023-04-24T03:01:55.128Z,99284.28
2023-04-24T03:04:21.590Z,99279.56
2023-04-24T03:06:47.876Z,99302.91
2023-04-24T03:09:14.088Z,99303.44
2023-04-24T03:11:40.374Z,99303.63
2023-04-24T03:14:06.583Z,99300.53
2023-04-24T03:16:32.832Z,99289.34
2023-04-24T03:18:59.059Z,99279.19
2023-04-24T03:21:25.257Z,99274.50
2023-04-24T03:23:51.497Z,99271.34
2023-04-24T03:26:17.712Z,99275.84
2023-04-24T03:28:43.955Z,99279.25
2023-04-24T03:31:10.197Z,99271.63
2023-04-24T03:33:36.424Z,99261.16
2023-04-24T03:36:02.694Z,99269.38
2023-04-24T03:38:28.898Z,99267.84
2023-04-24T03:40:55.108Z,99267.84
2023-04-24T03:43:21.310Z,99264.53
2023-04-24T03:45:47.562Z,99265.56
2023-04-24T03:48:13.839Z,99250.19
2023-04-24T03:50:40.035Z,99249.69
2023-04-24T03:53:06.270Z,99240.84
2023-04-24T03:55:32.468Z,99236.13
2023-04-24T03:57:58.686Z,99221.31
2023-04-24T04:00:24.942Z,99219.25
2023-04-24T04:02:51.278Z,99214.03
2023-04-24T04:05:17.618Z,99206.50
2023-04-24T04:07:43.857Z,99210.25
2023-04-24T04:10:10.172Z,99208.44
2023-04-24T04:12:36.402Z,99202.72
2023-04-24T04:15:02.598Z,99205.06
2023-04-24T04:17:28.802Z,99193.84
2023-04-24T04:19:55.026Z,99191.84
2023-04-24T04:22:21.248Z,99201.53
2023-04-24T04:24:47.488Z,99207.94
2023-04-24T04:27:13.816Z,99211.88
2023-04-24T04:29:40.028Z,99197.50
2023-04-24T04:32:06.362Z,99204.81
2023-04-24T04:34:32.640Z,99187.72
2023-04-24T04:36:58.858Z,99172.63
2023-04-24T04:39:25.067Z,99153.09
2023-04-24T04:41:51.270Z,99148.16
2023-04-24T04:44:17.485Z,99147.59
2023-04-24T04:46:43.712Z,99136.38
2023-04-24T04:49:09.924Z,99138.75
2023-04-24T04:51:36.121Z,99158.06
2023-04-24T04:54:02.332Z,99149.63
2023-04-24T04:56:28.576Z,99136.00
2023-04-24T04:58:54.794Z,99139.97
2023-04-24T05:01:21.004Z,99155.13
2023-04-24T05:03:47.467Z,99173.28
2023-04-24T05:06:13.816Z,99172.09
2023-04-24T05:08:40.036Z,99163.22
2023-04-24T05:11:06.297Z,99173.09
2023-04-24T05:13:39.769Z,99171.94
2023-04-24T05:16:07.211Z,99121.66
2023-04-24T05:18:33.484Z,99083.94
2023-04-24T05:20:59.733Z,99035.63
2023-04-24T05:23:25.984Z,99037.84
2023-04-24T05:25:52.223Z,98960.91
2023-04-24T05:28:18.473Z,98720.38
2023-04-24T05:30:44.729Z,98479.53
2023-04-24T05:33:11.123Z,98311.78
2023-04-24T05:35:37.321Z,98319.38
2023-04-24T05:38:03.595Z,98285.38
2023-04-24T05:40:29.838Z,98452.63
2023-04-24T05:42:56.147Z,98347.81
2023-04-24T05:45:22.348Z,98435.31
2023-04-24T05:47:48.614Z,98465.22
2023-04-24T05:50:14.846Z,98421.19
2023-04-24T05:52:41.068Z,98410.56
2023-04-24T05:55:07.378Z,98450.44
2023-04-24T05:57:33.591Z,98446.44
2023-04-24T05:59:59.807Z,98385.16
2023-04-24T06:02:26.168Z,98351.97
2023-04-24T06:04:52.656Z,98507.03
2023-04-24T06:07:19.009Z,98552.91
2023-04-24T06:09:45.364Z,98679.31
2023-04-24T06:12:11.680Z,98753.66
2023-04-24T06:14:37.880Z,98780.28
2023-04-24T06:17:04.108Z,98835.38
2023-04-24T06:19:30.358Z,98912.84
2023-04-24T06:21:56.565Z,98870.88
2023-04-24T06:24:22.781Z,98855.97
2023-04-24T06:26:48.991Z,98834.78
2023-04-24T06:29:15.211Z,98824.31
2023-04-24T06:31:41.450Z,98846.97
2023-04-24T06:34:07.682Z,98827.38
2023-04-24T06:36:33.928Z,98780.34
2023-04-24T06:39:00.146Z,98757.50
2023-04-24T06:41:26.403Z,98762.75
2023-04-24T06:43:52.629Z,98813.47
2023-04-24T06:46:18.891Z,98841.06
2023-04-24T06:48:45.126Z,98853.69
2023-04-24T06:51:11.337Z,98890.91
2023-04-24T06:53:37.563Z,98840.56
2023-04-24T06:56:03.816Z,98823.47
2023-04-24T06:58:30.034Z,98866.03
2023-04-24T07:00:56.398Z,98891.63
2023-04-24T07:03:22.860Z,98842.00
2023-04-24T07:05:49.152Z,98803.28
2023-04-24T07:08:15.372Z,98869.34
2023-04-24T07:10:41.591Z,98796.84
2023-04-24T07:13:07.801Z,98700.06
2023-04-24T07:15:34.022Z,98660.41
2023-04-24T07:18:01.271Z,98721.97
2023-04-24T07:20:28.885Z,98668.47
2023-04-24T07:22:55.119Z,98651.97
2023-04-24T07:25:21.416Z,98673.19
2023-04-24T07:27:47.642Z,98671.06
2023-04-24T07:30:14.058Z,98706.88
2023-04-24T07:32:40.319Z,98727.72
2023-04-24T07:35:06.683Z,98767.56
2023-04-24T07:37:32.917Z,98737.78
2023-04-24T07:39:59.145Z,98770.91
2023-04-24T07:42:25.401Z,98780.59
2023-04-24T07:44:51.647Z,98803.75
2023-04-24T07:47:17.865Z,98750.84
2023-04-24T07:49:44.309Z,98767.34
2023-04-24T07:52:10.834Z,98832.78
2023-04-24T07:54:37.052Z,98754.88
2023-04-24T07:57:03.288Z,98567.69
2023-04-24T07:59:29.507Z,98353.84
2023-04-24T08:01:55.724Z,98023.97
2023-04-24T08:04:22.085Z,98053.22
2023-04-24T08:06:48.480Z,98059.09
2023-04-24T08:09:14.702Z,97951.00
2023-04-24T08:11:40.925Z,98038.06
2023-04-24T08:14:07.157Z,97920.97
2023-04-24T08:16:33.683Z,97859.31
2023-04-24T08:18:59.975Z,97917.94
2023-04-24T08:21:26.178Z,97935.97
2023-04-24T08:23:52.387Z,97873.06
2023-04-24T08:26:18.580Z,97783.09
2023-04-24T08:28:44.786Z,97904.50
2023-04-24T08:31:11.016Z,97969.75
2023-04-24T08:33:37.254Z,97955.69
2023-04-24T08:36:03.958Z,97806.22
2023-04-24T08:38:30.185Z,97859.09
2023-04-24T08:40:57.359Z,98042.75
2023-04-24T08:43:23.561Z,98021.22
2023-04-24T08:45:49.829Z,98112.03
2023-04-24T08:48:27.265Z,98094.78
2023-04-24T08:50:57.502Z,97898.06
2023-04-24T08:53:23.732Z,97766.31
2023-04-24T08:55:49.952Z,97443.94
2023-04-24T08:58:16.900Z,97466.06
2023-04-24T09:00:43.127Z,97628.53
2023-04-24T09:03:09.430Z,97696.66
2023-04-24T09:05:40.897Z,97781.03
2023-04-24T09:08:07.136Z,97979.75
2023-04-24T09:10:33.992Z,98183.22
2023-04-24T09:13:00.312Z,97928.34
2023-04-24T09:15:26.561Z,97833.13
2023-04-24T09:17:52.926Z,97945.94
2023-04-24T09:20:19.261Z,98082.88
2023-04-24T09:22:45.822Z,97708.16
2023-04-24T09:25:12.040Z,97635.38
2023-04-24T09:27:38.239Z,97784.69
2023-04-24T09:30:04.566Z,97898.38
2023-04-24T09:32:30.785Z,97992.03
2023-04-24T09:35:07.857Z,98050.59
2023-04-24T09:37:42.629Z,97875.00
2023-04-24T09:40:11.908Z,97874.53
2023-04-24T09:42:39.048Z,97947.06
2023-04-24T09:45:15.115Z,97718.59
2023-04-24T09:47:43.172Z,97824.69
2023-04-24T09:50:13.446Z,97731.28
2023-04-24T09:52:43.640Z,97350.59
2023-04-24T09:55:17.097Z,97655.16
2023-04-24T09:57:48.233Z,97630.88
2023-04-24T10:00:14.722Z,97793.72
2023-04-24T10:02:40.963Z,97950.78
2023-04-24T10:05:07.467Z,97738.25
2023-04-24T10:07:33.900Z,97909.19
2023-04-24T10:10:00.237Z,97700.34
2023-04-24T10:12:27.576Z,97706.75
2023-04-24T10:14:53.811Z,97900.97
2023-04-24T10:17:20.081Z,98029.66
2023-04-24T10:19:46.291Z,98060.88
2023-04-24T10:22:12.536Z,98153.00
2023-04-24T10:24:38.750Z,98332.13
2023-04-24T10:27:04.949Z,98366.59
2023-04-24T10:29:31.538Z,98364.06
2023-04-24T10:31:57.748Z,98342.75
2023-04-24T10:34:23.988Z,98401.16
2023-04-24T10:36:51.623Z,98470.88
2023-04-24T10:39:17.887Z,98565.13
2023-04-24T10:41:44.108Z,98642.16
2023-04-24T10:44:11.009Z,98615.56
2023-04-24T10:46:37.536Z,98647.78
2023-04-24T10:49:07.022Z,98689.91
2023-04-24T10:51:48.475Z,98726.97
2023-04-24T10:54:27.727Z,98683.72
2023-04-24T10:56:54.171Z,98499.00
2023-04-24T10:59:30.186Z,98611.94
2023-04-24T11:01:56.469Z,98469.63
2023-04-24T11:04:32.393Z,98382.81
2023-04-24T11:06:58.618Z,98388.97
2023-04-24T11:09:27.124Z,98237.50
2023-04-24T11:11:54.027Z,98159.34
2023-04-24T11:14:20.248Z,98202.59
2023-04-24T11:16:52.007Z,98251.97
2023-04-24T11:19:22.372Z,98136.16
2023-04-24T11:22:14.876Z,98230.16
2023-04-24T11:24:49.325Z,98414.47
2023-04-24T11:27:18.587Z,98377.56
2023-04-24T11:29:47.501Z,98469.59
2023-04-24T11:32:16.912Z,98557.56
2023-04-24T11:34:45.250Z,98699.91
2023-04-24T11:37:11.479Z,98756.69
2023-04-24T11:39:37.751Z,98823.91
2023-04-24T11:42:04.104Z,98914.75
2023-04-24T11:44:30.324Z,98931.44
2023-04-24T11:46:56.933Z,99062.38
2023-04-24T11:49:23.403Z,99162.13
2023-04-24T11:51:53.511Z,99259.53
2023-04-24T11:54:20.986Z,99318.59
2023-04-24T11:56:47.667Z,99356.41
2023-04-24T11:59:13.871Z,99331.19
2023-04-24T12:01:43.870Z,99329.81
2023-04-24T12:04:10.717Z,99263.25
2023-04-24T12:06:37.079Z,99254.41
2023-04-24T12:09:11.452Z,99288.41
2023-04-24T12:11:53.194Z,99319.41
2023-04-24T12:14:19.406Z,99339.03
2023-04-24T12:16:48.354Z,99253.41
2023-04-24T12:19:18.709Z,99335.38
2023-04-24T12:21:44.911Z,99398.84
2023-04-24T12:24:11.119Z,99468.91
2023-04-24T12:26:37.319Z,99530.81
2023-04-24T12:29:03.947Z,99562.16
2023-04-24T12:31:30.262Z,99571.53
2023-04-24T12:33:56.534Z,99547.84
2023-04-24T12:36:22.753Z,99519.28
2023-04-24T12:38:48.980Z,99451.34
2023-04-24T12:41:15.322Z,99395.56
2023-04-24T12:43:51.593Z,99404.66
2023-04-24T12:46:18.413Z,99328.91
2023-04-24T12:48:46.144Z,99222.75
2023-04-24T12:51:12.443Z,99191.41
2023-04-24T12:53:38.779Z,99141.97
2023-04-24T12:56:05.257Z,99074.63
2023-04-24T12:58:31.464Z,99035.09
2023-04-24T13:00:57.736Z,99057.63
2023-04-24T13:03:24.102Z,99036.78
2023-04-24T13:05:50.440Z,99058.75
2023-04-24T13:08:16.772Z,99058.94
2023-04-24T13:10:43.099Z,98798.31
2023-04-24T13:13:09.316Z,98739.75
2023-04-24T13:15:35.541Z,98791.09
2023-04-24T13:18:01.914Z,98457.56
2023-04-24T13:20:28.196Z,98423.84
2023-04-24T13:22:54.428Z,98458.97
2023-04-24T13:25:20.643Z,98442.09
2023-04-24T13:27:46.858Z,98465.44
2023-04-24T13:30:13.113Z,98247.75
2023-04-24T13:32:39.381Z,97784.91
2023-04-24T13:35:05.732Z,97589.06
2023-04-24T13:37:32.218Z,97538.88
2023-04-24T13:39:58.645Z,97535.81
2023-04-24T13:42:24.882Z,97748.00
2023-04-24T13:44:51.114Z,97680.19
2023-04-24T13:47:17.859Z,97450.97
2023-04-24T13:49:44.126Z,97566.78
2023-04-24T13:52:10.408Z,97595.06
2023-04-24T13:54:42.271Z,97214.53
2023-04-24T14:00:12.211Z,97189.06
2023-04-24T14:02:38.510Z,97397.53
2023-04-24T14:05:05.131Z,97325.03
2023-04-24T14:07:33.484Z,97281.59
2023-04-24T14:09:59.710Z,97301.09
2023-04-24T14:12:28.314Z,97321.59
2023-04-24T14:14:54.707Z,97336.88
2023-04-24T14:17:20.918Z,97206.16
2023-04-24T14:19:58.079Z,97228.72
2023-04-24T14:22:24.826Z,97307.63
2023-04-24T14:24:52.368Z,97365.59
2023-04-24T14:27:18.730Z,97420.66
2023-04-24T14:29:45.058Z,97403.16
2023-04-24T14:32:11.347Z,97378.00
2023-04-24T14:34:37.579Z,97353.16
2023-04-24T14:37:06.975Z,97443.69
2023-04-24T14:39:33.365Z,97420.72
2023-04-24T14:41:59.574Z,97404.13
2023-04-24T14:44:25.777Z,97446.69
2023-04-24T14:46:52.038Z,97445.28
2023-04-24T14:49:19.966Z,97600.34
2023-04-24T14:51:46.163Z,97694.72
2023-04-24T14:54:12.368Z,97651.38
2023-04-24T14:56:38.574Z,97436.63
2023-04-24T14:59:04.779Z,97368.88
2023-04-24T15:01:31.041Z,97370.38
2023-04-24T15:03:57.438Z,97463.63
2023-04-24T15:06:23.745Z,97556.41
2023-04-24T15:08:50.631Z,97670.78
2023-04-24T15:11:17.079Z,97650.44
2023-04-24T15:13:43.462Z,97616.63
2023-04-24T15:16:09.871Z,97621.22
2023-04-24T15:18:36.088Z,97664.53
2023-04-24T15:21:02.286Z,97625.91
2023-04-24T15:23:28.589Z,97705.22
2023-04-24T15:25:54.815Z,97676.59
2023-04-24T15:28:21.035Z,97678.00
2023-04-24T15:30:47.303Z,97824.59
2023-04-24T15:33:13.533Z,97818.50
2023-04-24T15:35:39.902Z,97847.06
2023-04-24T15:40:46.287Z,97797.94
2023-04-24T15:43:12.524Z,97808.31
2023-04-24T15:48:30.373Z,98027.16
2023-04-24T15:50:56.604Z,98070.00
2023-04-24T15:53:22.924Z,98127.47
2023-04-24T15:55:52.400Z,98116.34
2023-04-24T15:58:18.988Z,98108.66
2023-04-24T16:00:45.312Z,98119.72
2023-04-24T16:03:12.237Z,98117.94
2023-04-24T16:05:38.511Z,98176.97
2023-04-24T16:08:04.753Z,98226.22
2023-04-24T16:10:30.976Z,98056.72
2023-04-24T16:12:57.177Z,98103.81
2023-04-24T16:15:23.395Z,98192.09
2023-04-24T16:17:49.685Z,98296.47
2023-04-24T16:20:15.921Z,98408.84
2023-04-24T16:22:42.114Z,98376.53
2023-04-24T16:25:08.551Z,98400.75
2023-04-24T16:27:34.784Z,98365.72
2023-04-24T16:30:01.129Z,98377.75
2023-04-24T16:32:28.100Z,98364.19
2023-04-24T16:34:54.314Z,98485.28
2023-04-24T16:37:20.506Z,98341.47
2023-04-24T16:39:46.713Z,98389.34
2023-04-24T16:42:13.082Z,98411.22
2023-04-24T16:47:50.074Z,98444.72
2023-04-24T16:59:11.544Z,98572.69
2023-04-24T17:01:37.764Z,98555.59
2023-04-24T17:04:04.098Z,98595.50
2023-04-24T17:06:30.379Z,98638.31
2023-04-24T17:08:56.585Z,98649.84
2023-04-24T17:11:22.803Z,98640.28
2023-04-24T17:13:49.001Z,98690.34
2023-04-24T17:16:15.341Z,98680.19
2023-04-24T17:24:27.145Z,98741.94
2023-04-24T17:26:56.401Z,98809.66
2023-04-24T17:29:25.229Z,98858.84
2023-04-24T17:31:51.482Z,98900.22
2023-04-24T17:34:17.788Z,98938.06
2023-04-24T17:36:43.999Z,99014.97
2023-04-24T17:39:10.218Z,99078.66
2023-04-24T17:41:36.434Z,99128.97
2023-04-24T17:44:02.650Z,99124.91
2023-04-24T17:46:28.926Z,99140.94
2023-04-24T17:48:55.554Z,99150.22
2023-04-24T17:51:21.922Z,99165.19
2023-04-24T17:53:48.133Z,99185.31
2023-04-24T17:56:14.360Z,99212.34
2023-04-24T17:58:40.567Z,99237.75
2023-04-24T18:01:06.865Z,99275.91
2023-04-24T18:03:33.259Z,99311.28
2023-04-24T18:05:59.577Z,99367.22
2023-04-24T18:08:25.778Z,99405.97
2023-04-24T18:10:51.982Z,99478.91
2023-04-24T18:13:18.193Z,99563.81
2023-04-24T18:15:44.450Z,99603.81
2023-04-24T18:18:10.899Z,99642.78
2023-04-24T18:20:37.119Z,99674.69
2023-04-24T18:23:04.085Z,99697.63
2023-04-24T18:25:30.293Z,99716.34
2023-04-24T18:27:56.501Z,99705.03
2023-04-24T18:30:22.931Z,99715.69
2023-04-24T18:32:49.519Z,99689.06
2023-04-24T18:35:16.393Z,99663.47
2023-04-24T18:37:42.609Z,99633.47
2023-04-24T18:40:09.338Z,99616.31
2023-04-24T18:42:35.568Z,99585.22
2023-04-24T18:45:01.968Z,99562.84
2023-04-24T18:47:28.331Z,99529.31
2023-04-24T18:49:54.608Z,99507.69
2023-04-24T18:52:20.852Z,99496.97
2023-04-24T18:54:47.399Z,99482.72
2023-04-24T18:57:13.617Z,99468.34
2023-04-24T18:59:39.820Z,99452.28
2023-04-24T19:02:06.063Z,99446.28
2023-04-24T19:04:32.356Z,99436.66
2023-04-24T19:06:58.618Z,99441.56
2023-04-24T19:09:24.828Z,99427.78
2023-04-24T19:11:51.044Z,99430.06
2023-04-24T19:14:17.252Z,99425.13
2023-04-24T19:16:43.523Z,99407.16
2023-04-24T19:19:09.772Z,99409.75
2023-04-24T19:21:35.986Z,99411.84
2023-04-24T19:24:02.198Z,99401.69
2023-04-24T19:26:28.429Z,99397.78
2023-04-24T19:28:54.943Z,99393.84
2023-04-24T19:31:21.174Z,99384.78
2023-04-24T19:33:47.384Z,99371.00
2023-04-24T19:36:14.074Z,99377.50
2023-04-24T19:38:40.266Z,99369.72
2023-04-24T19:41:06.501Z,99366.34
2023-04-24T19:43:32.789Z,99359.81
2023-04-24T19:45:59.165Z,99363.69
2023-04-24T19:48:25.444Z,99357.69
2023-04-24T19:50:51.753Z,99352.50
2023-04-24T19:53:17.987Z,99351.72
2023-04-24T19:55:44.248Z,99352.81
2023-04-24T19:58:10.450Z,99343.44
2023-04-24T20:00:36.663Z,99340.53
2023-04-24T20:03:03.075Z,99345.25
2023-04-24T20:05:29.569Z,99334.31
2023-04-24T20:07:55.802Z,99336.13
2023-04-24T20:10:22.008Z,99341.06
2023-04-24T20:12:48.228Z,99339.75
2023-04-24T20:15:14.445Z,99336.13
2023-04-24T20:17:40.710Z,99336.41
2023-04-24T20:20:07.324Z,99334.63
2023-04-24T20:22:33.622Z,99334.38
2023-04-24T20:24:59.882Z,99333.56
2023-04-24T20:27:26.162Z,99332.00
2023-04-24T20:29:52.398Z,99322.16
2023-04-24T20:32:18.602Z,99327.88
2023-04-24T20:34:44.821Z,99325.06
2023-04-24T20:37:11.284Z,99324.25
2023-04-24T20:39:37.502Z,99320.63
2023-04-24T20:42:03.761Z,99309.72
2023-04-24T20:44:30.002Z,99313.84
2023-04-24T20:46:56.234Z,99314.38
2023-04-24T20:49:22.498Z,99322.69
2023-04-24T20:51:48.694Z,99329.47
2023-04-24T20:54:14.896Z,99338.56
2023-04-24T20:56:44.128Z,99338.28
2023-04-24T20:59:10.321Z,99353.66
2023-04-24T21:01:36.536Z,99358.31
2023-04-24T21:04:02.798Z,99355.19
2023-04-24T21:06:29.288Z,99361.94
2023-04-24T21:08:55.614Z,99369.50
2023-04-24T21:11:21.826Z,99370.28
2023-04-24T21:13:48.258Z,99375.22
2023-04-24T21:16:14.666Z,99371.06
2023-04-24T21:18:41.256Z,99367.69
2023-04-24T21:21:08.027Z,99362.22
2023-04-24T21:23:34.268Z,99362.50
2023-04-24T21:26:00.524Z,99367.41
2023-04-24T21:28:26.759Z,99365.88
2023-04-24T21:30:52.977Z,99368.50
2023-04-24T21:33:19.170Z,99356.28
2023-04-24T21:35:45.382Z,99360.94
2023-04-24T21:38:11.599Z,99360.94
2023-04-24T21:40:37.817Z,99360.94
2023-04-24T21:43:04.023Z,99346.63
2023-04-24T21:45:30.336Z,99342.22
2023-04-24T21:47:59.018Z,99344.03
2023-04-24T21:50:25.278Z,99345.09
2023-04-24T21:52:51.469Z,99349.25
2023-04-24T21:55:17.738Z,99351.09
2023-04-24T21:57:43.949Z,99343.53
2023-04-24T22:00:12.610Z,99334.69
2023-04-24T22:02:38.937Z,99331.84
2023-04-24T22:05:05.235Z,99317.50
2023-04-24T22:07:33.123Z,99312.56
2023-04-24T22:09:59.423Z,99318.84
2023-04-24T22:12:25.839Z,99315.22
2023-04-24T22:14:52.037Z,99305.03
2023-04-24T22:17:18.263Z,99299.34
2023-04-24T22:19:44.478Z,99302.72
2023-04-24T22:22:10.800Z,99296.19
2023-04-24T22:24:37.034Z,99295.69
2023-04-24T22:27:03.387Z,99304.28
2023-04-24T22:29:30.261Z,99311.81
2023-04-24T22:31:56.639Z,99315.72
2023-04-24T22:34:23.449Z,99311.53
2023-04-24T22:36:49.728Z,99312.84
2023-04-24T22:39:15.982Z,99322.22
2023-04-24T22:41:42.328Z,99317.00
2023-04-24T22:44:08.867Z,99320.66
2023-04-24T22:46:35.077Z,99324.81
2023-04-24T22:49:01.338Z,99319.34
2023-04-24T22:51:27.622Z,99323.78
2023-04-24T22:53:54.532Z,99340.19
2023-04-24T22:56:20.753Z,99348.22
2023-04-24T22:58:46.949Z,99346.41
2023-04-24T23:01:13.201Z,99350.03
2023-04-24T23:03:39.676Z,99347.47
2023-04-24T23:06:06.236Z,99357.34
2023-04-24T23:08:32.442Z,99349.28
2023-04-24T23:10:58.657Z,99361.19
2023-04-24T23:13:24.875Z,99370.03
2023-04-24T23:15:53.293Z,99375.00
2023-04-24T23:18:20.881Z,99364.88
2023-04-24T23:20:47.103Z,99360.47
2023-04-24T23:23:13.310Z,99363.03
2023-04-24T23:25:39.879Z,99374.50
2023-04-24T23:28:06.096Z,99367.72
2023-04-24T23:30:32.312Z,99360.97
2023-04-24T23:32:58.569Z,99357.31
2023-04-24T23:35:24.808Z,99366.16
2023-04-24T23:37:51.030Z,99357.56
2023-04-24T23:40:17.249Z,99353.94
2023-04-24T23:42:43.454Z,99361.22
2023-04-24T23:45:09.868Z,99353.13
2023-04-24T23:47:36.571Z,99346.88
2023-04-24T23:50:02.812Z,99354.41
2023-04-24T23:52:29.039Z,99350.25
2023-04-24T23:54:55.244Z,99349.50
2023-04-24T23:57:21.451Z,99347.88
2023-04-24T23:59:47.638Z,99344.75
